Time;durP1;ratioP1;P1;durP2;ratioP2;P2;SDS_P1;SDS_P2;PMS_P1;PMS_P2;Temp;Humidity;BMP_temperature;BMP_pressure;BME280_temperature;BME280_humidity;BME280_pressure;Samples;Min_cycle;Max_cycle;Signal;HPM_P1;HPM_P2
2021/08/02 00:02:00;;;;;;;0.98;0.98;;;;;;;;;;5075814;28;20016;-78
2021/08/02 00:04:31;;;;;;;1.00;1.00;;;;;;;;;;5074382;28;20028;-80
2021/08/02 00:07:04;;;;;;;1.43;1.33;;;;;;;;;;5074973;28;20031;-78
2021/08/02 00:09:35;;;;;;;3.33;1.92;;;;;;;;;;5076168;28;20021;-77
2021/08/02 00:12:04;;;;;;;1.15;1.10;;;;;;;;;;5074256;28;20020;-78
2021/08/02 00:14:31;;;;;;;1.08;1.00;;;;;;;;;;5076935;28;20025;-78
2021/08/02 00:16:58;;;;;;;1.63;1.02;;;;;;;;;;5084663;28;20025;-79
2021/08/02 00:19:25;;;;;;;1.65;1.40;;;;;;;;;;5096251;28;20647;-78
2021/08/02 00:21:51;;;;;;;1.13;1.13;;;;;;;;;;5097089;28;20031;-78
2021/08/02 00:24:18;;;;;;;2.30;1.35;;;;;;;;;;5096734;28;20032;-78
2021/08/02 00:26:45;;;;;;;1.92;1.50;;;;;;;;;;5097375;28;20329;-77
2021/08/02 00:29:11;;;;;;;1.45;1.20;;;;;;;;;;5101811;28;20489;-77
2021/08/02 00:31:37;;;;;;;1.88;1.30;;;;;;;;;;5100720;28;20028;-77
2021/08/02 00:34:04;;;;;;;1.40;1.30;;;;;;;;;;5100817;28;20028;-78
2021/08/02 00:36:39;;;;;;;1.65;1.45;;;;;;;;;;5098139;28;20016;-77
2021/08/02 00:39:07;;;;;;;1.15;1.05;;;;;;;;;;5099189;28;20020;-78
2021/08/02 00:41:42;;;;;;;1.45;1.35;;;;;;;;;;5115245;28;20024;-77
2021/08/02 00:44:20;;;;;;;1.48;1.38;;;;;;;;;;5096604;28;20175;-77
2021/08/02 00:46:52;;;;;;;1.55;1.45;;;;;;;;;;5086144;28;20021;-77
2021/08/02 00:49:23;;;;;;;1.25;1.10;;;;;;;;;;5074111;28;20064;-77
2021/08/02 00:51:51;;;;;;;5.95;1.40;;;;;;;;;;5090249;28;20040;-78
2021/08/02 00:54:18;;;;;;;1.27;1.17;;;;;;;;;;5092331;28;20029;-78
2021/08/02 00:56:45;;;;;;;1.50;1.40;;;;;;;;;;5077491;28;20055;-78
2021/08/02 00:59:12;;;;;;;1.20;1.10;;;;;;;;;;5076305;28;20100;-78
2021/08/02 01:01:38;;;;;;;1.10;1.10;;;;;;;;;;5075427;28;20077;-78
2021/08/02 01:04:04;;;;;;;1.20;1.20;;;;;;;;;;5076233;28;20020;-78
2021/08/02 01:06:32;;;;;;;1.27;1.17;;;;;;;;;;5075862;28;20059;-78
2021/08/02 01:09:05;;;;;;;3.10;1.50;;;;;;;;;;5074055;28;20032;-78
2021/08/02 01:11:33;;;;;;;1.38;1.27;;;;;;;;;;5076001;28;20088;-78
2021/08/02 01:14:00;;;;;;;1.30;1.20;;;;;;;;;;5074643;28;20028;-78
2021/08/02 01:16:26;;;;;;;2.40;1.42;;;;;;;;;;5088080;28;20384;-78
2021/08/02 01:18:53;;;;;;;2.42;1.45;;;;;;;;;;5079364;28;20020;-78
2021/08/02 01:21:20;;;;;;;1.40;1.30;;;;;;;;;;5073009;28;20047;-78
2021/08/02 01:23:48;;;;;;;2.30;1.30;;;;;;;;;;5076098;28;20048;-78
2021/08/02 01:26:54;;;;;;;1.95;1.55;;;;;;;;;;5073848;28;20096;-78
2021/08/02 01:29:38;;;;;;;1.33;1.20;;;;;;;;;;4996178;28;20488;-78
2021/08/02 01:32:04;;;;;;;1.83;1.30;;;;;;;;;;4994013;28;20471;-76
2021/08/02 01:34:30;;;;;;;1.48;1.38;;;;;;;;;;5048169;28;20040;-78
2021/08/02 01:36:57;;;;;;;1.77;1.40;;;;;;;;;;5074292;28;20096;-78
2021/08/02 01:39:23;;;;;;;1.38;1.35;;;;;;;;;;5077739;28;20016;-78
2021/08/02 01:41:49;;;;;;;1.40;1.30;;;;;;;;;;5079556;28;20020;-78
2021/08/02 01:44:15;;;;;;;2.15;1.50;;;;;;;;;;5076405;28;20038;-78
2021/08/02 01:46:56;;;;;;;1.42;1.20;;;;;;;;;;5084632;28;20095;-78
2021/08/02 01:49:22;;;;;;;1.25;1.25;;;;;;;;;;5082551;28;20032;-78
2021/08/02 01:51:52;;;;;;;1.92;1.55;;;;;;;;;;5077555;28;20017;-79
2021/08/02 01:54:30;;;;;;;1.17;1.13;;;;;;;;;;5078611;28;20025;-78
2021/08/02 01:57:01;;;;;;;2.35;1.38;;;;;;;;;;5075624;28;20021;-78
2021/08/02 01:59:30;;;;;;;1.45;1.13;;;;;;;;;;5077283;28;20031;-78
2021/08/02 02:02:01;;;;;;;2.55;1.67;;;;;;;;;;5076066;28;20027;-77
2021/08/02 02:04:42;;;;;;;1.70;1.60;;;;;;;;;;5075623;28;20038;-78
2021/08/02 02:07:09;;;;;;;1.77;1.50;;;;;;;;;;5076732;28;20025;-78
2021/08/02 02:09:36;;;;;;;1.20;1.20;;;;;;;;;;5075612;28;20048;-78
2021/08/02 02:12:03;;;;;;;1.45;1.33;;;;;;;;;;5075389;28;20070;-77
2021/08/02 02:14:30;;;;;;;3.10;1.27;;;;;;;;;;5075813;28;20024;-77
2021/08/02 02:16:57;;;;;;;1.27;1.27;;;;;;;;;;5086218;28;20210;-77
2021/08/02 02:19:25;;;;;;;1.55;1.30;;;;;;;;;;5099706;28;20032;-77
2021/08/02 02:21:51;;;;;;;1.73;1.63;;;;;;;;;;5098265;28;20046;-77
2021/08/02 02:24:18;;;;;;;1.45;1.35;;;;;;;;;;5099846;28;20411;-77
2021/08/02 02:26:45;;;;;;;1.27;1.10;;;;;;;;;;5099520;28;20095;-77
2021/08/02 02:29:12;;;;;;;1.70;1.60;;;;;;;;;;5097808;28;20020;-77
2021/08/02 02:31:39;;;;;;;1.60;1.50;;;;;;;;;;5095180;28;20016;-77
2021/08/02 02:34:07;;;;;;;1.60;1.50;;;;;;;;;;5094851;28;20039;-76
2021/08/02 02:36:35;;;;;;;1.48;1.40;;;;;;;;;;5093869;28;20105;-77
2021/08/02 02:39:01;;;;;;;3.47;2.15;;;;;;;;;;5093709;28;20504;-77
2021/08/02 02:41:28;;;;;;;1.60;1.50;;;;;;;;;;5093511;28;20031;-76
2021/08/02 02:43:54;;;;;;;3.17;1.58;;;;;;;;;;5092871;28;20028;-76
2021/08/02 02:46:21;;;;;;;1.45;1.35;;;;;;;;;;5094443;28;20030;-78
2021/08/02 02:48:48;;;;;;;2.30;2.10;;;;;;;;;;5078769;28;20073;-78
2021/08/02 02:51:14;;;;;;;1.55;1.45;;;;;;;;;;5074677;28;20364;-78
2021/08/02 02:53:41;;;;;;;2.97;1.60;;;;;;;;;;5072023;28;20119;-77
2021/08/02 02:56:09;;;;;;;2.33;1.80;;;;;;;;;;5071363;28;20033;-77
2021/08/02 02:58:38;;;;;;;1.95;1.30;;;;;;;;;;5072937;28;20024;-78
2021/08/02 03:01:05;;;;;;;2.78;1.50;;;;;;;;;;5076806;28;20059;-78
2021/08/02 03:03:32;;;;;;;2.53;1.70;;;;;;;;;;5076684;28;20039;-78
2021/08/02 03:05:59;;;;;;;1.73;1.60;;;;;;;;;;5073761;28;20346;-77
2021/08/02 03:08:26;;;;;;;1.30;1.20;;;;;;;;;;5074833;28;20111;-77
2021/08/02 03:10:53;;;;;;;1.70;1.60;;;;;;;;;;5074529;28;20078;-77
2021/08/02 03:13:19;;;;;;;1.60;1.50;;;;;;;;;;5075781;28;20016;-78
2021/08/02 03:15:45;;;;;;;1.80;1.70;;;;;;;;;;5084623;28;20023;-78
2021/08/02 03:18:11;;;;;;;1.60;1.50;;;;;;;;;;5089192;28;20043;-78
2021/08/02 03:20:37;;;;;;;3.65;1.85;;;;;;;;;;5097561;28;20105;-78
2021/08/02 03:23:22;;;;;;;2.92;1.58;;;;;;;;;;5095516;28;20110;-78
2021/08/02 03:25:59;;;;;;;1.85;1.75;;;;;;;;;;5095680;28;20024;-76
2021/08/02 03:28:33;;;;;;;2.20;1.77;;;;;;;;;;5108019;28;20018;-79
2021/08/02 03:31:01;;;;;;;1.77;1.65;;;;;;;;;;5099337;28;20051;-80
2021/08/02 03:33:38;;;;;;;2.30;1.83;;;;;;;;;;5077742;28;21043;-80
2021/08/02 03:36:07;;;;;;;5.20;1.60;;;;;;;;;;5077141;28;20031;-78
2021/08/02 03:38:35;;;;;;;3.05;1.98;;;;;;;;;;5076860;28;20054;-80
2021/08/02 03:41:01;;;;;;;2.05;1.90;;;;;;;;;;5077784;28;20070;-80
2021/08/02 03:43:28;;;;;;;4.32;2.70;;;;;;;;;;5077517;28;20096;-81
2021/08/02 03:45:55;;;;;;;2.35;1.80;;;;;;;;;;5085706;28;20129;-80
2021/08/02 03:48:25;;;;;;;3.42;2.15;;;;;;;;;;5089456;28;20083;-79
2021/08/02 03:50:52;;;;;;;2.33;2.13;;;;;;;;;;5097095;28;20024;-80
2021/08/02 03:53:19;;;;;;;2.85;2.10;;;;;;;;;;5097391;28;20030;-79
2021/08/02 03:55:45;;;;;;;2.50;2.30;;;;;;;;;;5097695;28;20346;-84
2021/08/02 03:58:11;;;;;;;3.15;2.55;;;;;;;;;;5099695;28;20438;-85
2021/08/02 04:00:37;;;;;;;1.83;1.73;;;;;;;;;;5100836;28;20040;-82
2021/08/02 04:03:05;;;;;;;2.53;2.20;;;;;;;;;;5100173;28;20032;-82
2021/08/02 04:05:31;;;;;;;2.80;2.28;;;;;;;;;;5100508;28;20097;-84
2021/08/02 04:08:00;;;;;;;5.32;2.40;;;;;;;;;;5102181;28;20012;-84
2021/08/02 04:13:30;;;;;;;2.40;2.20;;;;;;;;;;5102984;28;20086;-84
2021/08/02 04:15:56;;;;;;;2.80;2.08;;;;;;;;;;5101176;28;20446;-84
2021/08/02 04:18:23;;;;;;;2.03;1.92;;;;;;;;;;5090515;28;20028;-81
2021/08/02 04:20:49;;;;;;;2.20;2.00;;;;;;;;;;5106182;28;20035;-80
2021/08/02 04:23:15;;;;;;;3.47;2.05;;;;;;;;;;5100433;28;20105;-81
2021/08/02 04:25:41;;;;;;;3.15;1.70;;;;;;;;;;5099224;28;20031;-80
2021/08/02 04:28:07;;;;;;;2.15;1.98;;;;;;;;;;5099300;28;20028;-81
2021/08/02 04:30:33;;;;;;;1.92;1.83;;;;;;;;;;5099363;28;20024;-81
2021/08/02 04:32:59;;;;;;;2.25;1.98;;;;;;;;;;5099548;28;20020;-81
2021/08/02 04:35:25;;;;;;;2.55;2.17;;;;;;;;;;5103760;28;20028;-80
2021/08/02 04:37:52;;;;;;;2.47;2.20;;;;;;;;;;5107709;28;20028;-81
2021/08/02 04:40:18;;;;;;;3.72;2.50;;;;;;;;;;5103648;28;20024;-82
2021/08/02 04:42:44;;;;;;;4.78;2.20;;;;;;;;;;5099734;28;20035;-81
2021/08/02 04:45:10;;;;;;;2.38;2.17;;;;;;;;;;5099716;28;20028;-81
2021/08/02 04:47:36;;;;;;;4.68;2.25;;;;;;;;;;5089510;28;20224;-81
2021/08/02 04:50:02;;;;;;;3.05;2.17;;;;;;;;;;5083120;28;20516;-80
2021/08/02 04:52:28;;;;;;;5.35;2.85;;;;;;;;;;5078057;28;20017;-79
2021/08/02 04:54:56;;;;;;;2.75;2.38;;;;;;;;;;5077248;28;20032;-79
2021/08/02 04:57:22;;;;;;;3.25;2.30;;;;;;;;;;5082072;28;20043;-79
2021/08/02 04:59:48;;;;;;;4.53;2.00;;;;;;;;;;5075707;28;20131;-79
2021/08/02 05:02:14;;;;;;;6.32;2.90;;;;;;;;;;5077217;28;20028;-79
2021/08/02 05:04:40;;;;;;;3.22;2.60;;;;;;;;;;5077585;28;20024;-79
2021/08/02 05:07:06;;;;;;;2.75;2.55;;;;;;;;;;5078354;28;20083;-80
2021/08/02 05:09:32;;;;;;;3.47;2.08;;;;;;;;;;5077337;28;20060;-79
2021/08/02 05:11:58;;;;;;;4.03;2.30;;;;;;;;;;5078398;28;20021;-80
2021/08/02 05:14:24;;;;;;;2.50;2.30;;;;;;;;;;5082424;28;20024;-80
2021/08/02 05:16:50;;;;;;;4.55;2.47;;;;;;;;;;5086108;28;20027;-80
2021/08/02 05:19:16;;;;;;;2.65;2.28;;;;;;;;;;5076809;28;20025;-79
2021/08/02 05:21:43;;;;;;;2.95;2.42;;;;;;;;;;5076329;28;20025;-79
2021/08/02 05:24:09;;;;;;;3.42;2.40;;;;;;;;;;5076607;28;20090;-79
2021/08/02 05:26:35;;;;;;;2.40;2.17;;;;;;;;;;5075485;28;20036;-78
2021/08/02 05:29:01;;;;;;;4.95;2.40;;;;;;;;;;5064254;28;20100;-78
2021/08/02 05:31:27;;;;;;;3.05;2.30;;;;;;;;;;5078065;28;20032;-78
2021/08/02 05:33:53;;;;;;;4.63;2.80;;;;;;;;;;5081614;28;20044;-79
2021/08/02 05:36:19;;;;;;;4.85;2.72;;;;;;;;;;5083176;28;20070;-79
2021/08/02 05:38:45;;;;;;;3.03;2.17;;;;;;;;;;5077340;28;20021;-82
2021/08/02 05:41:11;;;;;;;3.58;2.20;;;;;;;;;;5077907;28;20047;-83
2021/08/02 05:43:37;;;;;;;6.65;2.75;;;;;;;;;;5085440;28;20064;-82
2021/08/02 05:46:04;;;;;;;2.97;2.42;;;;;;;;;;5091148;28;20306;-77
2021/08/02 05:48:30;;;;;;;3.30;2.83;;;;;;;;;;5094021;28;20046;-77
2021/08/02 05:50:56;;;;;;;3.33;2.78;;;;;;;;;;5099564;28;20501;-77
2021/08/02 05:53:22;;;;;;;3.88;2.50;;;;;;;;;;5094936;28;20025;-77
2021/08/02 05:55:51;;;;;;;5.97;2.83;;;;;;;;;;5093834;28;20089;-77
2021/08/02 05:58:17;;;;;;;6.20;3.10;;;;;;;;;;5087678;28;20070;-78
2021/08/02 06:00:43;;;;;;;3.50;2.63;;;;;;;;;;5087611;28;20040;-77
2021/08/02 06:03:09;;;;;;;3.67;2.65;;;;;;;;;;5079349;28;20131;-77
2021/08/02 06:05:35;;;;;;;3.00;2.30;;;;;;;;;;5083290;28;20043;-79
2021/08/02 06:08:01;;;;;;;3.47;2.60;;;;;;;;;;5094577;28;20027;-78
2021/08/02 06:10:27;;;;;;;3.08;2.47;;;;;;;;;;5077345;28;20029;-79
2021/08/02 06:12:53;;;;;;;2.78;2.03;;;;;;;;;;5075683;28;20048;-79
2021/08/02 06:15:19;;;;;;;5.68;2.00;;;;;;;;;;5077807;28;20027;-80
2021/08/02 06:17:45;;;;;;;4.60;2.65;;;;;;;;;;5086517;28;20039;-80
2021/08/02 06:20:12;;;;;;;2.45;1.92;;;;;;;;;;5095158;28;20453;-80
2021/08/02 06:22:38;;;;;;;2.38;2.10;;;;;;;;;;5077313;28;20068;-78
2021/08/02 06:25:04;;;;;;;4.03;2.20;;;;;;;;;;5075586;28;20153;-77
2021/08/02 06:27:31;;;;;;;1.92;1.73;;;;;;;;;;5073837;28;20027;-82
2021/08/02 06:29:58;;;;;;;2.08;1.90;;;;;;;;;;5075201;28;20032;-79
2021/08/02 06:32:24;;;;;;;1.80;1.65;;;;;;;;;;5075413;28;20022;-80
2021/08/02 06:34:50;;;;;;;4.85;1.90;;;;;;;;;;5072997;28;20385;-78
2021/08/02 06:37:17;;;;;;;2.83;1.98;;;;;;;;;;5075319;28;20024;-79
2021/08/02 06:39:43;;;;;;;5.30;2.20;;;;;;;;;;5075752;28;20021;-79
2021/08/02 06:42:10;;;;;;;3.13;2.40;;;;;;;;;;5075924;28;20516;-80
2021/08/02 06:44:36;;;;;;;2.30;2.10;;;;;;;;;;5075615;28;20034;-79
2021/08/02 06:47:02;;;;;;;2.42;2.05;;;;;;;;;;5086150;28;20125;-78
2021/08/02 06:49:28;;;;;;;2.88;2.00;;;;;;;;;;5101585;28;20371;-79
2021/08/02 06:51:54;;;;;;;1.70;1.60;;;;;;;;;;5103568;28;20085;-80
2021/08/02 06:54:20;;;;;;;2.88;2.10;;;;;;;;;;5097342;28;20294;-79
2021/08/02 06:56:46;;;;;;;5.47;2.10;;;;;;;;;;5095950;28;20047;-78
2021/08/02 06:59:12;;;;;;;3.08;2.10;;;;;;;;;;5096156;28;20111;-80
2021/08/02 07:01:38;;;;;;;2.40;2.05;;;;;;;;;;5095535;28;20043;-80
2021/08/02 07:04:05;;;;;;;2.55;2.10;;;;;;;;;;5095628;28;20024;-80
2021/08/02 07:06:31;;;;;;;1.90;1.73;;;;;;;;;;5096340;28;20384;-79
2021/08/02 07:08:58;;;;;;;2.40;2.03;;;;;;;;;;5096757;28;20028;-80
2021/08/02 07:11:24;;;;;;;3.38;1.83;;;;;;;;;;5096309;28;20020;-80
2021/08/02 07:13:50;;;;;;;2.35;2.15;;;;;;;;;;5089614;28;20024;-79
2021/08/02 07:16:16;;;;;;;3.50;2.28;;;;;;;;;;5086451;28;20118;-79
2021/08/02 07:18:42;;;;;;;1.73;1.63;;;;;;;;;;5092005;28;20028;-79
2021/08/02 07:21:11;;;;;;;3.25;1.60;;;;;;;;;;5097423;28;20044;-80
2021/08/02 07:23:37;;;;;;;2.83;1.60;;;;;;;;;;5095724;28;20027;-80
2021/08/02 07:26:04;;;;;;;4.00;2.10;;;;;;;;;;5091018;28;20108;-79
2021/08/02 07:28:30;;;;;;;4.15;1.65;;;;;;;;;;5081738;28;20028;-80
2021/08/02 07:30:56;;;;;;;2.80;2.00;;;;;;;;;;5096985;28;20126;-80
2021/08/02 07:33:22;;;;;;;2.83;1.65;;;;;;;;;;5094775;28;20020;-80
2021/08/02 07:35:48;;;;;;;4.22;1.98;;;;;;;;;;5092507;28;20024;-81
2021/08/02 07:38:14;;;;;;;4.50;1.67;;;;;;;;;;5095782;28;20059;-80
2021/08/02 07:40:41;;;;;;;2.70;1.98;;;;;;;;;;5096191;28;20030;-81
2021/08/02 07:43:07;;;;;;;2.30;1.98;;;;;;;;;;5096117;28;20131;-78
2021/08/02 07:45:33;;;;;;;3.15;2.88;;;;;;;;;;5096200;28;20028;-80
2021/08/02 07:47:59;;;;;;;2.80;2.13;;;;;;;;;;5091913;28;20024;-80
2021/08/02 07:50:25;;;;;;;3.92;2.42;;;;;;;;;;5105891;28;20023;-80
2021/08/02 07:52:51;;;;;;;3.22;2.17;;;;;;;;;;5102387;28;20024;-80
2021/08/02 07:55:17;;;;;;;1.98;1.88;;;;;;;;;;5101703;28;20024;-80
2021/08/02 07:57:43;;;;;;;5.45;2.05;;;;;;;;;;5096036;28;20035;-80
2021/08/02 08:00:11;;;;;;;2.38;1.50;;;;;;;;;;5102297;28;20032;-78
2021/08/02 08:02:37;;;;;;;3.90;1.73;;;;;;;;;;5103155;28;20096;-79
2021/08/02 08:05:03;;;;;;;2.50;2.10;;;;;;;;;;5106823;28;20028;-81
2021/08/02 08:07:30;;;;;;;2.17;1.98;;;;;;;;;;5109522;28;20035;-79
2021/08/02 08:09:56;;;;;;;3.95;1.85;;;;;;;;;;5103903;28;20008;-79
2021/08/02 08:12:22;;;;;;;3.88;2.40;;;;;;;;;;5110489;28;20020;-78
2021/08/02 08:14:48;;;;;;;3.65;2.03;;;;;;;;;;5105308;28;20108;-77
2021/08/02 08:17:14;;;;;;;3.38;1.80;;;;;;;;;;5105094;28;20028;-78
2021/08/02 08:19:40;;;;;;;4.15;2.55;;;;;;;;;;5083465;28;20035;-79
2021/08/02 08:22:06;;;;;;;3.08;2.58;;;;;;;;;;5081351;28;20056;-81
2021/08/02 08:24:32;;;;;;;5.22;2.53;;;;;;;;;;5079725;28;20024;-81
2021/08/02 08:26:58;;;;;;;2.03;1.85;;;;;;;;;;5078921;28;20021;-79
2021/08/02 08:29:24;;;;;;;2.17;1.52;;;;;;;;;;5079863;28;20056;-80
2021/08/02 08:31:50;;;;;;;2.30;2.10;;;;;;;;;;5079600;28;20050;-79
2021/08/02 08:34:16;;;;;;;3.92;2.17;;;;;;;;;;5084996;28;20028;-77
2021/08/02 08:36:42;;;;;;;2.25;1.90;;;;;;;;;;5086505;28;20115;-79
2021/08/02 08:39:08;;;;;;;2.42;1.90;;;;;;;;;;5090008;28;20047;-80
2021/08/02 08:41:35;;;;;;;4.28;2.50;;;;;;;;;;5101329;28;20083;-77
2021/08/02 08:44:01;;;;;;;4.13;2.40;;;;;;;;;;5100648;28;20461;-80
2021/08/02 08:46:27;;;;;;;5.53;2.30;;;;;;;;;;5092836;28;20107;-80
2021/08/02 08:48:54;;;;;;;5.07;2.35;;;;;;;;;;5095377;28;20164;-80
2021/08/02 08:51:20;;;;;;;2.95;1.98;;;;;;;;;;5105908;28;20016;-79
2021/08/02 08:53:46;;;;;;;2.33;2.13;;;;;;;;;;5108567;28;20020;-81
2021/08/02 08:56:15;;;;;;;4.10;2.10;;;;;;;;;;5096857;28;20027;-81
2021/08/02 08:58:42;;;;;;;2.53;2.03;;;;;;;;;;5096514;28;20031;-79
2021/08/02 09:01:08;;;;;;;3.47;2.33;;;;;;;;;;5099381;28;20024;-80
2021/08/02 09:03:35;;;;;;;2.50;2.30;;;;;;;;;;5097362;28;20139;-80
2021/08/02 09:06:01;;;;;;;1.88;1.77;;;;;;;;;;5096713;28;20123;-80
2021/08/02 09:08:27;;;;;;;4.20;2.38;;;;;;;;;;5098506;28;20342;-81
2021/08/02 09:11:00;;;;;;;3.85;2.60;;;;;;;;;;5088796;28;20090;-81
2021/08/02 09:13:45;;;;;;;7.13;3.30;;;;;;;;;;5087200;28;20082;-78
2021/08/02 09:16:21;;;;;;;6.72;2.50;;;;;;;;;;5092949;28;20415;-81
2021/08/02 09:19:01;;;;;;;3.15;2.50;;;;;;;;;;5094456;28;20036;-80
2021/08/02 09:21:27;;;;;;;3.63;2.53;;;;;;;;;;5097248;28;20059;-79
2021/08/02 09:23:55;;;;;;;3.47;1.90;;;;;;;;;;5097840;28;20055;-81
2021/08/02 09:26:31;;;;;;;2.88;2.28;;;;;;;;;;5098148;28;20027;-81
2021/08/02 09:28:57;;;;;;;2.17;1.98;;;;;;;;;;5099438;28;20091;-78
2021/08/02 09:31:31;;;;;;;2.65;2.10;;;;;;;;;;5099913;28;20035;-78
2021/08/02 09:34:00;;;;;;;4.72;2.13;;;;;;;;;;5099531;28;20532;-79
2021/08/02 09:36:36;;;;;;;3.58;1.90;;;;;;;;;;5099369;28;20054;-79
2021/08/02 09:39:07;;;;;;;3.00;1.85;;;;;;;;;;5099319;28;20024;-79
2021/08/02 09:41:33;;;;;;;1.88;1.60;;;;;;;;;;5086695;28;20027;-77
2021/08/02 09:43:59;;;;;;;2.03;1.55;;;;;;;;;;5080117;28;20079;-78
2021/08/02 09:46:25;;;;;;;1.40;1.30;;;;;;;;;;5087081;28;20115;-78
2021/08/02 09:48:52;;;;;;;2.80;1.50;;;;;;;;;;5092642;28;20012;-79
2021/08/02 09:51:19;;;;;;;2.30;1.83;;;;;;;;;;5091061;28;20502;-78
2021/08/02 09:53:46;;;;;;;3.92;2.53;;;;;;;;;;5100537;28;20016;-78
2021/08/02 09:56:13;;;;;;;4.22;2.00;;;;;;;;;;5098420;28;20408;-78
2021/08/02 09:58:40;;;;;;;3.05;2.25;;;;;;;;;;5096790;28;20020;-78
2021/08/02 10:01:07;;;;;;;3.45;2.72;;;;;;;;;;5097501;28;20043;-78
2021/08/02 10:03:34;;;;;;;2.67;2.00;;;;;;;;;;5099301;28;20028;-78
2021/08/02 10:06:00;;;;;;;1.98;1.77;;;;;;;;;;5093148;28;20413;-79
2021/08/02 10:08:28;;;;;;;4.78;2.25;;;;;;;;;;5088364;28;20021;-79
2021/08/02 10:10:54;;;;;;;2.42;1.73;;;;;;;;;;5077485;28;20093;-79
2021/08/02 10:13:22;;;;;;;2.60;1.98;;;;;;;;;;5078443;28;20123;-79
2021/08/02 10:15:52;;;;;;;5.97;2.55;;;;;;;;;;5085786;28;20443;-80
2021/08/02 10:18:19;;;;;;;6.32;2.60;;;;;;;;;;5079075;28;20085;-80
2021/08/02 10:20:48;;;;;;;4.00;2.97;;;;;;;;;;5078829;28;20028;-80
2021/08/02 10:23:23;;;;;;;4.00;2.42;;;;;;;;;;5066797;28;20385;-82
2021/08/02 10:25:49;;;;;;;4.35;2.20;;;;;;;;;;5076163;28;20096;-81
2021/08/02 10:28:16;;;;;;;4.15;2.03;;;;;;;;;;5077955;28;20021;-81
2021/08/02 10:30:43;;;;;;;2.53;2.30;;;;;;;;;;5074057;28;20029;-80
2021/08/02 10:33:09;;;;;;;2.30;2.10;;;;;;;;;;5077739;28;20033;-80
2021/08/02 10:35:38;;;;;;;2.58;2.00;;;;;;;;;;5078063;28;20436;-81
2021/08/02 10:38:06;;;;;;;2.10;1.92;;;;;;;;;;5074825;28;20435;-80
2021/08/02 10:40:44;;;;;;;3.28;1.90;;;;;;;;;;5076705;28;20028;-81
2021/08/02 10:43:10;;;;;;;4.88;2.13;;;;;;;;;;5083999;28;20076;-79
2021/08/02 10:45:38;;;;;;;1.70;1.60;;;;;;;;;;5088368;28;20036;-80
2021/08/02 10:48:05;;;;;;;2.60;2.15;;;;;;;;;;5090949;28;20108;-80
2021/08/02 10:50:34;;;;;;;3.10;2.15;;;;;;;;;;5081928;28;20532;-81
2021/08/02 10:53:10;;;;;;;1.70;1.20;;;;;;;;;;5081362;28;20039;-81
2021/08/02 10:55:43;;;;;;;2.17;1.85;;;;;;;;;;5084015;28;20072;-77
2021/08/02 10:58:09;;;;;;;1.73;1.40;;;;;;;;;;5087919;28;20074;-78
2021/08/02 11:00:35;;;;;;;1.92;1.63;;;;;;;;;;5085455;28;20267;-79
2021/08/02 11:03:02;;;;;;;1.98;1.60;;;;;;;;;;5083456;28;20029;-80
2021/08/02 11:05:32;;;;;;;2.70;1.90;;;;;;;;;;5082583;28;20035;-81
2021/08/02 11:08:05;;;;;;;1.85;1.65;;;;;;;;;;5081566;28;20020;-80
2021/08/02 11:10:32;;;;;;;3.65;2.25;;;;;;;;;;5098040;28;20021;-79
2021/08/02 11:12:58;;;;;;;3.80;2.22;;;;;;;;;;5097964;28;20024;-81
2021/08/02 11:15:24;;;;;;;3.97;1.88;;;;;;;;;;5101754;28;20102;-81
2021/08/02 11:17:54;;;;;;;1.92;1.65;;;;;;;;;;5093954;28;20028;-82
2021/08/02 11:20:20;;;;;;;1.77;1.67;;;;;;;;;;5092318;28;20058;-80
2021/08/02 11:22:54;;;;;;;3.85;1.48;;;;;;;;;;5086473;28;20033;-81
2021/08/02 11:25:24;;;;;;;1.50;1.38;;;;;;;;;;5086538;28;20048;-81
2021/08/02 11:27:57;;;;;;;1.40;1.30;;;;;;;;;;5086773;28;20032;-81
2021/08/02 11:30:24;;;;;;;1.10;1.00;;;;;;;;;;5084580;28;20029;-81
2021/08/02 11:32:50;;;;;;;2.30;1.33;;;;;;;;;;5085860;28;20028;-79
2021/08/02 11:35:17;;;;;;;1.80;0.90;;;;;;;;;;5085165;28;20054;-78
2021/08/02 11:37:50;;;;;;;1.65;1.52;;;;;;;;;;5085256;28;20029;-80
2021/08/02 11:40:16;;;;;;;2.13;1.38;;;;;;;;;;5097236;28;20043;-79
2021/08/02 11:42:45;;;;;;;1.20;0.90;;;;;;;;;;5096201;28;20029;-79
2021/08/02 11:45:11;;;;;;;2.58;1.42;;;;;;;;;;5091782;28;20021;-80
2021/08/02 11:47:41;;;;;;;2.17;1.65;;;;;;;;;;5097650;28;21411;-81
2021/08/02 11:50:08;;;;;;;3.72;1.58;;;;;;;;;;5103132;28;20050;-80
2021/08/02 11:52:34;;;;;;;1.98;1.67;;;;;;;;;;5105920;28;20365;-79
2021/08/02 11:55:00;;;;;;;1.65;1.55;;;;;;;;;;5104661;28;20028;-79
2021/08/02 11:57:26;;;;;;;1.40;1.30;;;;;;;;;;5104174;28;20020;-80
2021/08/02 12:00:04;;;;;;;1.73;1.60;;;;;;;;;;5105419;28;20032;-80
2021/08/02 12:02:31;;;;;;;1.90;1.60;;;;;;;;;;5105314;28;20035;-79
2021/08/02 12:04:58;;;;;;;5.05;1.90;;;;;;;;;;5104632;28;20067;-80
2021/08/02 12:07:27;;;;;;;1.90;1.27;;;;;;;;;;5104911;28;20042;-79
2021/08/02 12:09:53;;;;;;;7.53;2.30;;;;;;;;;;5105760;28;20016;-80
2021/08/02 12:12:23;;;;;;;3.40;1.88;;;;;;;;;;5104102;28;20031;-79
2021/08/02 12:14:50;;;;;;;2.45;2.00;;;;;;;;;;5084268;28;20485;-80
2021/08/02 12:17:18;;;;;;;4.38;1.80;;;;;;;;;;5094289;28;20023;-79
2021/08/02 12:19:44;;;;;;;2.42;1.55;;;;;;;;;;5101971;28;20040;-78
2021/08/02 12:22:10;;;;;;;1.45;1.25;;;;;;;;;;5104640;28;20527;-80
2021/08/02 12:24:54;;;;;;;2.20;1.20;;;;;;;;;;5092036;28;20044;-78
2021/08/02 12:27:21;;;;;;;1.38;1.27;;;;;;;;;;5097919;28;20036;-78
2021/08/02 12:30:01;;;;;;;1.67;1.08;;;;;;;;;;5097495;28;20085;-80
2021/08/02 12:32:34;;;;;;;1.30;1.20;;;;;;;;;;5087904;28;20035;-77
2021/08/02 12:35:01;;;;;;;1.55;1.45;;;;;;;;;;5087363;28;20036;-81
2021/08/02 12:37:27;;;;;;;1.27;1.17;;;;;;;;;;5085030;28;20032;-80
2021/08/02 12:39:55;;;;;;;2.17;1.20;;;;;;;;;;5083509;28;20099;-81
2021/08/02 12:42:26;;;;;;;1.55;1.30;;;;;;;;;;5083442;28;20054;-79
2021/08/02 12:44:55;;;;;;;1.03;1.03;;;;;;;;;;5098345;28;20544;-81
2021/08/02 12:47:22;;;;;;;2.25;1.02;;;;;;;;;;5091097;28;20039;-79
2021/08/02 12:49:48;;;;;;;3.22;1.20;;;;;;;;;;5099664;28;20040;-81
2021/08/02 12:52:15;;;;;;;2.08;1.00;;;;;;;;;;5084730;28;20370;-80
2021/08/02 12:54:41;;;;;;;3.83;1.13;;;;;;;;;;5084000;28;20047;-81
2021/08/02 12:57:07;;;;;;;1.40;1.30;;;;;;;;;;5085212;28;20032;-80
2021/08/02 12:59:33;;;;;;;1.35;1.20;;;;;;;;;;5083766;28;20037;-81
2021/08/02 13:01:59;;;;;;;1.77;1.17;;;;;;;;;;5084718;28;20021;-81
2021/08/02 13:04:25;;;;;;;1.88;1.25;;;;;;;;;;5084392;28;20380;-80
2021/08/02 13:06:51;;;;;;;1.60;1.23;;;;;;;;;;5085337;28;20036;-80
2021/08/02 13:09:17;;;;;;;1.65;1.55;;;;;;;;;;5083296;28;20039;-80
2021/08/02 13:11:43;;;;;;;1.80;1.40;;;;;;;;;;5083787;28;20052;-79
2021/08/02 13:14:09;;;;;;;1.30;1.20;;;;;;;;;;5082224;28;20052;-79
2021/08/02 13:16:35;;;;;;;1.05;1.05;;;;;;;;;;5089881;28;20470;-80
2021/08/02 13:19:01;;;;;;;2.83;1.98;;;;;;;;;;5097311;28;20562;-81
2021/08/02 13:21:27;;;;;;;3.92;1.55;;;;;;;;;;5100718;28;20028;-81
2021/08/02 13:26:57;;;;;;;1.30;1.20;;;;;;;;;;5100557;28;20062;-80
2021/08/02 13:29:23;;;;;;;4.25;1.52;;;;;;;;;;5093958;28;20420;-79
2021/08/02 13:31:51;;;;;;;1.27;1.17;;;;;;;;;;5079718;28;20025;-79
2021/08/02 13:34:17;;;;;;;1.70;1.60;;;;;;;;;;5079580;28;20029;-81
2021/08/02 13:36:43;;;;;;;1.15;1.10;;;;;;;;;;5078387;28;20553;-79
2021/08/02 13:39:10;;;;;;;2.13;1.38;;;;;;;;;;5077993;28;20032;-80
2021/08/02 13:41:36;;;;;;;1.17;1.10;;;;;;;;;;5077697;28;20048;-80
2021/08/02 13:44:02;;;;;;;1.65;1.40;;;;;;;;;;5082027;28;20107;-79
2021/08/02 13:46:30;;;;;;;1.20;1.02;;;;;;;;;;5093526;28;20032;-79
2021/08/02 13:48:58;;;;;;;1.40;1.13;;;;;;;;;;5097897;28;20024;-80
2021/08/02 13:51:24;;;;;;;1.23;1.13;;;;;;;;;;5109820;28;20376;-79
2021/08/02 13:53:50;;;;;;;1.48;1.38;;;;;;;;;;5081351;28;20024;-81
2021/08/02 13:56:16;;;;;;;1.77;1.58;;;;;;;;;;5077391;28;20035;-80
2021/08/02 13:58:42;;;;;;;7.47;2.08;;;;;;;;;;5076659;28;20099;-79
2021/08/02 14:01:09;;;;;;;1.42;1.30;;;;;;;;;;5079076;28;20022;-81
2021/08/02 14:03:35;;;;;;;1.33;1.23;;;;;;;;;;5079299;28;20029;-84
2021/08/02 14:06:01;;;;;;;2.13;1.42;;;;;;;;;;5077836;28;20103;-79
2021/08/02 14:08:28;;;;;;;1.08;0.98;;;;;;;;;;5093785;28;20064;-81
2021/08/02 14:10:55;;;;;;;1.58;1.20;;;;;;;;;;5097659;28;20024;-80
2021/08/02 14:13:23;;;;;;;1.40;1.30;;;;;;;;;;5096887;28;20116;-79
2021/08/02 14:15:54;;;;;;;1.35;1.25;;;;;;;;;;5097053;28;20023;-80
2021/08/02 14:18:32;;;;;;;1.95;1.60;;;;;;;;;;5090032;28;20055;-80
2021/08/02 14:20:59;;;;;;;1.33;1.10;;;;;;;;;;5102574;28;20035;-80
2021/08/02 14:23:25;;;;;;;1.40;1.30;;;;;;;;;;5100150;28;20028;-80
2021/08/02 14:25:52;;;;;;;1.55;1.45;;;;;;;;;;5089438;28;20039;-81
2021/08/02 14:28:21;;;;;;;2.05;1.70;;;;;;;;;;5089961;28;20020;-80
2021/08/02 14:30:50;;;;;;;2.38;0.90;;;;;;;;;;5079386;28;20362;-80
2021/08/02 14:33:17;;;;;;;2.15;1.45;;;;;;;;;;5077197;28;20023;-80
2021/08/02 14:35:44;;;;;;;1.58;1.30;;;;;;;;;;5088070;28;20028;-79
2021/08/02 14:38:10;;;;;;;1.83;1.42;;;;;;;;;;5104817;28;20020;-78
2021/08/02 14:40:37;;;;;;;2.03;1.40;;;;;;;;;;5111764;28;20052;-79
2021/08/02 14:43:17;;;;;;;1.10;1.10;;;;;;;;;;5103212;28;20051;-79
2021/08/02 14:45:43;;;;;;;3.00;1.23;;;;;;;;;;5095260;28;20004;-78
2021/08/02 14:48:13;;;;;;;1.92;0.93;;;;;;;;;;5084355;28;20025;-81
2021/08/02 14:50:42;;;;;;;1.50;1.40;;;;;;;;;;5097789;28;20021;-80
2021/08/02 14:53:13;;;;;;;3.28;2.05;;;;;;;;;;5079452;28;20070;-79